Time;durP1;ratioP1;P1;durP2;ratioP2;P2;SDS_P1;SDS_P2;PMS_P1;PMS_P2;Temp;Humidity;BMP_temperature;BMP_pressure;BME280_temperature;BME280_humidity;BME280_pressure;Samples;Min_cycle;Max_cycle;Signal;HPM_P1;HPM_P2
2021/03/27 00:00:44;;;;;;;13.85;8.90;;;;;;;;;;6297872;28;20478;-77
2021/03/27 00:03:50;;;;;;;15.68;9.18;;;;;;;;;;6290215;28;20143;-77
2021/03/27 00:06:54;;;;;;;13.15;9.13;;;;;;;;;;6288183;28;20080;-76
2021/03/27 00:09:55;;;;;;;;;;;;;;;;;;6290157;28;20555;-77
2021/03/27 00:13:06;;;;;;;13.38;9.05;;;;;;;;;;6287596;28;19956;-77
2021/03/27 00:16:15;;;;;;;13.98;8.90;;;;;;;;;;6282484;28;20523;-77
2021/03/27 00:19:30;;;;;;;15.10;9.38;;;;;;;;;;6291391;28;20079;-78
2021/03/27 00:22:34;;;;;;;15.82;10.27;;;;;;;;;;6288264;28;20049;-77
2021/03/27 00:25:38;;;;;;;17.02;10.98;;;;;;;;;;6280904;28;20516;-74
2021/03/27 00:28:41;;;;;;;;;;;;;;;;;;6289571;28;20613;-74
2021/03/27 00:31:45;;;;;;;13.37;9.83;;;;;;;;;;6289278;28;19924;-73
2021/03/27 00:34:50;;;;;;;15.10;9.30;;;;;;;;;;6285347;28;20061;-73
2021/03/27 00:37:52;;;;;;;15.93;9.45;;;;;;;;;;6289832;28;20103;-77
2021/03/27 00:40:53;;;;;;;18.92;10.70;;;;;;;;;;6291356;28;20123;-73
2021/03/27 00:43:59;;;;;;;16.40;9.70;;;;;;;;;;6290520;28;20040;-73
2021/03/27 00:47:01;;;;;;;15.40;10.32;;;;;;;;;;6282901;28;20482;-74
2021/03/27 00:50:10;;;;;;;13.45;10.02;;;;;;;;;;6287236;28;20090;-72
2021/03/27 00:53:15;;;;;;;12.90;10.02;;;;;;;;;;6286730;28;20130;-74
2021/03/27 00:56:19;;;;;;;17.90;10.93;;;;;;;;;;6291976;28;20072;-73
2021/03/27 00:59:24;;;;;;;14.20;10.63;;;;;;;;;;6285016;28;20045;-75
2021/03/27 01:02:26;;;;;;;20.23;10.80;;;;;;;;;;6288732;28;20502;-74
2021/03/27 01:05:28;;;;;;;17.80;11.20;;;;;;;;;;6284944;28;20049;-74
2021/03/27 01:08:30;;;;;;;16.50;10.88;;;;;;;;;;6280378;28;20117;-74
2021/03/27 01:11:33;;;;;;;16.98;10.90;;;;;;;;;;6287318;28;20159;-74
2021/03/27 01:14:40;;;;;;;14.13;11.00;;;;;;;;;;6290459;28;20152;-74
2021/03/27 01:17:42;;;;;;;16.02;11.73;;;;;;;;;;6284883;28;20079;-76
2021/03/27 01:20:46;;;;;;;15.13;10.52;;;;;;;;;;6281061;28;20052;-77
2021/03/27 01:23:55;;;;;;;16.50;11.10;;;;;;;;;;6283116;28;20149;-74
2021/03/27 01:26:59;;;;;;;17.65;10.82;;;;;;;;;;6281446;28;20675;-73
2021/03/27 01:30:05;;;;;;;18.27;11.60;;;;;;;;;;6283801;28;20075;-74
2021/03/27 01:33:18;;;;;;;15.38;10.45;;;;;;;;;;6287256;28;20165;-75
2021/03/27 01:36:22;;;;;;;15.20;10.93;;;;;;;;;;6283391;28;20124;-76
2021/03/27 01:39:26;;;;;;;14.68;11.07;;;;;;;;;;6286980;28;20070;-74
2021/03/27 01:42:38;;;;;;;14.55;9.77;;;;;;;;;;6282732;28;20495;-74
2021/03/27 01:46:00;;;;;;;12.82;10.13;;;;;;;;;;6284727;28;20068;-75
2021/03/27 01:49:19;;;;;;;13.10;10.60;;;;;;;;;;6279049;28;20048;-75
2021/03/27 01:52:33;;;;;;;16.90;10.57;;;;;;;;;;6284689;28;21346;-74
2021/03/27 01:55:48;;;;;;;13.43;10.90;;;;;;;;;;6285362;28;20044;-73
2021/03/27 01:58:53;;;;;;;12.35;9.65;;;;;;;;;;6282633;28;20482;-75
2021/03/27 02:02:01;;;;;;;14.02;10.35;;;;;;;;;;6286214;28;20068;-75
2021/03/27 02:05:06;;;;;;;12.43;10.00;;;;;;;;;;6268917;22;20116;-67
2021/03/27 02:08:13;;;;;;;19.33;10.68;;;;;;;;;;6250743;28;20095;-67
2021/03/27 02:11:20;;;;;;;16.75;10.20;;;;;;;;;;6249341;28;20133;-67
2021/03/27 02:14:28;;;;;;;15.57;10.57;;;;;;;;;;6250035;28;20104;-67
2021/03/27 02:17:33;;;;;;;17.25;10.18;;;;;;;;;;6249164;28;20161;-67
2021/03/27 02:20:55;;;;;;;15.10;10.07;;;;;;;;;;6249316;28;20049;-67
2021/03/27 02:24:03;;;;;;;16.35;10.38;;;;;;;;;;6248569;28;20445;-67
2021/03/27 02:27:08;;;;;;;14.93;10.65;;;;;;;;;;6249042;28;20046;-67
2021/03/27 02:30:15;;;;;;;14.68;9.85;;;;;;;;;;6249790;28;20069;-67
2021/03/27 02:33:31;;;;;;;15.25;10.10;;;;;;;;;;6248939;28;20049;-67
2021/03/27 02:36:43;;;;;;;15.35;9.45;;;;;;;;;;6249222;28;20092;-67
2021/03/27 02:39:51;;;;;;;16.65;10.20;;;;;;;;;;6249681;28;20095;-67
2021/03/27 02:42:57;;;;;;;13.32;10.05;;;;;;;;;;6248282;28;20497;-67
2021/03/27 02:46:03;;;;;;;14.82;9.85;;;;;;;;;;6249711;28;20053;-67
2021/03/27 02:49:22;;;;;;;14.00;9.90;;;;;;;;;;6248858;28;20129;-68
2021/03/27 02:52:30;;;;;;;17.05;10.25;;;;;;;;;;6249037;28;20188;-67
2021/03/27 02:55:35;;;;;;;13.18;9.63;;;;;;;;;;6248678;28;20133;-67
2021/03/27 02:58:44;;;;;;;15.43;10.00;;;;;;;;;;6249147;28;20052;-67
2021/03/27 03:01:53;;;;;;;16.40;10.00;;;;;;;;;;6249200;28;20138;-67
2021/03/27 03:05:00;;;;;;;14.23;9.38;;;;;;;;;;6234030;28;20124;-68
2021/03/27 03:08:09;;;;;;;17.52;10.13;;;;;;;;;;6233452;28;20140;-67
2021/03/27 03:11:14;;;;;;;14.15;9.48;;;;;;;;;;6235744;28;20148;-67
2021/03/27 03:14:20;;;;;;;16.88;10.18;;;;;;;;;;6220482;28;20071;-66
2021/03/27 03:17:30;;;;;;;13.32;9.95;;;;;;;;;;6227645;28;20153;-66
2021/03/27 03:20:34;;;;;;;15.52;9.88;;;;;;;;;;6212437;28;20148;-67
2021/03/27 03:23:38;;;;;;;13.10;9.95;;;;;;;;;;6233434;28;20136;-67
2021/03/27 03:26:53;;;;;;;18.70;10.38;;;;;;;;;;6224086;28;20037;-67
2021/03/27 03:29:59;;;;;;;14.57;9.73;;;;;;;;;;6220189;28;20060;-67
2021/03/27 03:33:29;;;;;;;14.07;10.40;;;;;;;;;;6220071;28;20053;-69
2021/03/27 03:36:41;;;;;;;14.82;10.02;;;;;;;;;;6196470;28;20092;-67
2021/03/27 03:40:05;;;;;;;14.80;10.18;;;;;;;;;;6257217;28;20053;-67
2021/03/27 03:43:16;;;;;;;15.88;10.30;;;;;;;;;;6260526;28;20538;-67
2021/03/27 03:46:28;;;;;;;16.25;10.90;;;;;;;;;;6259609;28;20045;-67
2021/03/27 03:49:52;;;;;;;14.82;10.10;;;;;;;;;;6258548;28;20127;-66
2021/03/27 03:53:02;;;;;;;12.02;8.88;;;;;;;;;;6249862;28;20175;-67
2021/03/27 03:56:13;;;;;;;13.95;8.88;;;;;;;;;;6261090;28;20238;-66
2021/03/27 03:59:27;;;;;;;15.27;9.55;;;;;;;;;;6257240;28;20132;-67
2021/03/27 04:02:30;;;;;;;13.18;10.02;;;;;;;;;;6260258;28;20128;-67
2021/03/27 04:05:34;;;;;;;13.27;9.80;;;;;;;;;;6258016;28;20138;-67
2021/03/27 04:08:38;;;;;;;;;;;;;;;;;;6257875;28;20135;-67
2021/03/27 04:11:45;;;;;;;12.67;9.27;;;;;;;;;;6262635;28;20629;-67
2021/03/27 04:14:52;;;;;;;16.67;9.32;;;;;;;;;;6259289;28;20684;-67
2021/03/27 04:18:01;;;;;;;12.77;9.02;;;;;;;;;;6258314;28;20178;-67
2021/03/27 04:21:07;;;;;;;12.95;8.93;;;;;;;;;;6249804;28;20140;-67
2021/03/27 04:24:11;;;;;;;17.08;9.45;;;;;;;;;;6264246;28;20057;-67
2021/03/27 04:27:21;;;;;;;14.20;9.18;;;;;;;;;;6255199;28;20136;-67
2021/03/27 04:30:39;;;;;;;15.23;8.88;;;;;;;;;;6266654;28;20399;-67
2021/03/27 04:33:46;;;;;;;14.95;9.00;;;;;;;;;;6266565;28;20082;-67
2021/03/27 04:36:58;;;;;;;12.85;8.60;;;;;;;;;;6256943;28;20081;-67
2021/03/27 04:40:03;;;;;;;14.50;8.90;;;;;;;;;;6261428;28;20830;-67
2021/03/27 04:43:08;;;;;;;12.50;9.55;;;;;;;;;;6261530;28;20149;-67
2021/03/27 04:46:14;;;;;;;16.13;9.48;;;;;;;;;;6258661;28;20065;-67
2021/03/27 04:49:21;;;;;;;15.00;8.60;;;;;;;;;;6254174;28;20172;-67
2021/03/27 04:52:34;;;;;;;11.95;9.02;;;;;;;;;;6257544;28;20057;-66
2021/03/27 04:55:39;;;;;;;14.13;9.18;;;;;;;;;;6265504;28;20203;-67
2021/03/27 04:58:42;;;;;;;11.23;9.02;;;;;;;;;;6253436;28;20123;-67
2021/03/27 05:01:49;;;;;;;13.10;8.95;;;;;;;;;;6260558;28;20148;-67
2021/03/27 05:04:58;;;;;;;13.95;9.10;;;;;;;;;;6265027;28;20084;-67
2021/03/27 05:08:02;;;;;;;13.43;9.02;;;;;;;;;;6256039;28;20135;-67
2021/03/27 05:11:11;;;;;;;;;;;;;;;;;;6259643;28;20064;-67
2021/03/27 05:14:25;;;;;;;13.18;9.20;;;;;;;;;;6257949;28;19975;-67
2021/03/27 05:17:45;;;;;;;14.27;9.38;;;;;;;;;;6256546;28;20115;-67
2021/03/27 05:20:52;;;;;;;17.30;9.45;;;;;;;;;;6254568;28;20135;-67
2021/03/27 05:24:03;;;;;;;13.27;8.60;;;;;;;;;;6258682;28;20160;-67
2021/03/27 05:27:22;;;;;;;13.57;10.00;;;;;;;;;;6268715;28;20049;-67
2021/03/27 05:30:24;;;;;;;12.23;9.18;;;;;;;;;;6264113;28;20061;-67
2021/03/27 05:33:33;;;;;;;15.35;10.27;;;;;;;;;;6249498;28;20175;-67
2021/03/27 05:36:51;;;;;;;16.45;9.57;;;;;;;;;;6256870;28;20062;-67
2021/03/27 05:39:56;;;;;;;14.35;9.88;;;;;;;;;;6251591;28;20127;-67
2021/03/27 05:43:29;;;;;;;16.95;9.70;;;;;;;;;;6255670;28;20053;-67
2021/03/27 05:46:46;;;;;;;15.98;10.50;;;;;;;;;;6268028;28;20140;-66
2021/03/27 05:50:06;;;;;;;15.18;9.85;;;;;;;;;;6249432;28;20231;-67
2021/03/27 05:53:51;;;;;;;14.05;9.63;;;;;;;;;;6255139;28;20033;-67
2021/03/27 05:57:14;;;;;;;15.35;10.68;;;;;;;;;;6244009;28;20073;-67
2021/03/27 06:00:35;;;;;;;21.92;11.07;;;;;;;;;;6254942;28;20156;-67
2021/03/27 06:04:06;;;;;;;14.35;10.20;;;;;;;;;;6255526;28;20052;-67
2021/03/27 06:07:46;;;;;;;14.65;10.93;;;;;;;;;;6255169;28;20136;-67
2021/03/27 06:11:16;;;;;;;19.75;11.35;;;;;;;;;;6254916;28;20135;-66
2021/03/27 06:14:35;;;;;;;14.52;10.60;;;;;;;;;;6254723;28;20042;-67
2021/03/27 06:18:14;;;;;;;18.65;11.68;;;;;;;;;;6259327;28;20045;-67
2021/03/27 06:21:24;;;;;;;18.70;12.40;;;;;;;;;;6217303;28;20183;-66
2021/03/27 06:24:45;;;;;;;19.60;12.68;;;;;;;;;;6254887;28;20629;-66
2021/03/27 06:28:17;;;;;;;20.67;12.90;;;;;;;;;;6255418;28;20131;-66
2021/03/27 06:31:34;;;;;;;16.00;11.43;;;;;;;;;;6265133;28;20144;-66
2021/03/27 06:34:54;;;;;;;17.63;12.25;;;;;;;;;;6258163;28;20511;-66
2021/03/27 06:38:05;;;;;;;18.23;11.48;;;;;;;;;;6257899;28;20561;-67
2021/03/27 06:41:10;;;;;;;21.33;12.73;;;;;;;;;;6250464;28;20136;-66
2021/03/27 06:44:15;;;;;;;17.92;12.40;;;;;;;;;;6251577;28;20534;-66
2021/03/27 06:47:39;;;;;;;17.05;12.73;;;;;;;;;;6258992;28;20561;-66
2021/03/27 06:51:02;;;;;;;25.10;14.63;;;;;;;;;;6257302;28;20076;-68
2021/03/27 06:54:16;;;;;;;20.25;13.35;;;;;;;;;;6254598;28;20041;-68
2021/03/27 06:57:47;;;;;;;19.63;13.55;;;;;;;;;;6257497;28;20049;-67
2021/03/27 07:00:59;;;;;;;23.77;15.20;;;;;;;;;;6259280;28;20045;-66
2021/03/27 07:04:45;;;;;;;20.13;14.43;;;;;;;;;;6257177;28;20068;-69
2021/03/27 07:08:05;;;;;;;20.73;15.02;;;;;;;;;;6187838;28;20497;-66
2021/03/27 07:11:29;;;;;;;22.25;16.38;;;;;;;;;;6265995;28;20079;-66
2021/03/27 07:14:53;;;;;;;25.00;16.70;;;;;;;;;;6264137;28;20100;-67
2021/03/27 07:18:03;;;;;;;22.88;17.02;;;;;;;;;;6267744;28;20132;-67
2021/03/27 07:21:31;;;;;;;22.95;17.98;;;;;;;;;;6265349;28;20120;-67
2021/03/27 07:24:49;;;;;;;24.58;18.05;;;;;;;;;;6263412;28;20103;-67
2021/03/27 07:28:16;;;;;;;27.75;18.67;;;;;;;;;;6260930;28;20688;-66
2021/03/27 07:31:38;;;;;;;27.88;19.30;;;;;;;;;;6257654;28;20128;-66
2021/03/27 07:34:52;;;;;;;26.27;19.38;;;;;;;;;;6262611;28;20056;-66
2021/03/27 07:38:25;;;;;;;27.15;19.85;;;;;;;;;;6255248;28;20124;-66
2021/03/27 07:41:45;;;;;;;30.08;21.15;;;;;;;;;;6268154;28;20083;-67
2021/03/27 07:44:57;;;;;;;25.35;19.00;;;;;;;;;;6263736;28;20084;-67
2021/03/27 07:48:12;;;;;;;29.77;19.25;;;;;;;;;;6266017;28;20067;-66
2021/03/27 07:51:48;;;;;;;31.95;20.23;;;;;;;;;;6254957;28;20159;-66
2021/03/27 07:55:37;;;;;;;24.92;18.77;;;;;;;;;;6260995;28;20041;-66
2021/03/27 07:58:56;;;;;;;27.02;19.77;;;;;;;;;;6257801;28;20677;-66
2021/03/27 08:02:11;;;;;;;29.00;19.88;;;;;;;;;;6259814;28;20040;-66
2021/03/27 08:05:45;;;;;;;29.95;21.75;;;;;;;;;;6267986;28;20079;-66
2021/03/27 08:09:10;;;;;;;28.30;20.77;;;;;;;;;;6264332;28;20049;-65
2021/03/27 08:12:49;;;;;;;27.77;21.48;;;;;;;;;;6261224;28;20415;-65
2021/03/27 08:16:25;;;;;;;28.00;20.45;;;;;;;;;;6263494;28;20065;-66
2021/03/27 08:19:59;;;;;;;30.38;21.23;;;;;;;;;;6238618;28;20473;-65
2021/03/27 08:23:25;;;;;;;33.70;20.60;;;;;;;;;;6255217;28;20148;-65
2021/03/27 08:26:47;;;;;;;29.67;20.23;;;;;;;;;;6265143;28;20037;-65
2021/03/27 08:30:26;;;;;;;26.20;21.05;;;;;;;;;;6259281;28;20124;-65
2021/03/27 08:34:15;;;;;;;28.42;20.30;;;;;;;;;;6260971;28;20047;-67
2021/03/27 08:37:37;;;;;;;28.83;21.23;;;;;;;;;;6165278;28;20613;-67
2021/03/27 08:40:58;;;;;;;29.65;20.60;;;;;;;;;;6171769;28;20072;-65
2021/03/27 08:44:33;;;;;;;30.55;21.52;;;;;;;;;;6262714;28;20124;-66
2021/03/27 08:47:40;;;;;;;;;;;;;;;;;;6263466;28;20048;-65
2021/03/27 08:51:02;;;;;;;30.05;21.52;;;;;;;;;;6268530;28;20004;-65
2021/03/27 08:54:31;;;;;;;36.33;23.20;;;;;;;;;;6252941;28;20448;-66
2021/03/27 08:58:03;;;;;;;36.38;24.08;;;;;;;;;;6264835;28;20041;-66
2021/03/27 09:01:26;;;;;;;35.15;24.52;;;;;;;;;;6254100;28;20037;-65
2021/03/27 09:04:37;;;;;;;38.83;25.23;;;;;;;;;;6250894;28;20580;-68
2021/03/27 09:08:04;;;;;;;35.60;25.63;;;;;;;;;;6257118;28;20106;-67
2021/03/27 09:11:16;;;;;;;36.50;25.83;;;;;;;;;;6251784;28;20527;-67
2021/03/27 09:14:43;;;;;;;35.67;25.98;;;;;;;;;;6256971;28;20060;-66
2021/03/27 09:18:07;;;;;;;36.60;26.13;;;;;;;;;;6264678;28;20578;-66
2021/03/27 09:21:19;;;;;;;37.95;27.25;;;;;;;;;;6259219;28;20128;-67
2021/03/27 09:24:29;;;;;;;36.38;26.92;;;;;;;;;;6259625;28;20184;-67
2021/03/27 09:27:57;;;;;;;37.92;27.85;;;;;;;;;;6249339;28;20063;-67
2021/03/27 09:31:14;;;;;;;43.80;28.55;;;;;;;;;;6250205;28;20139;-65
2021/03/27 09:34:24;;;;;;;41.03;28.73;;;;;;;;;;6254592;28;20139;-65
2021/03/27 09:37:38;;;;;;;36.33;27.88;;;;;;;;;;6253257;28;20471;-67
2021/03/27 09:40:51;;;;;;;44.05;27.48;;;;;;;;;;6257996;28;20606;-68
2021/03/27 09:44:28;;;;;;;41.15;28.25;;;;;;;;;;6264228;28;20144;-67
2021/03/27 09:47:47;;;;;;;36.40;27.67;;;;;;;;;;6239340;28;20041;-67
2021/03/27 09:50:51;;;;;;;38.03;26.23;;;;;;;;;;6253383;28;20186;-67
2021/03/27 09:53:58;;;;;;;;;;;;;;;;;;6256024;28;20053;-69
2021/03/27 09:57:02;;;;;;;39.95;27.55;;;;;;;;;;6257115;28;19956;-67
2021/03/27 10:00:14;;;;;;;45.30;28.15;;;;;;;;;;6255596;28;20091;-67
2021/03/27 10:03:18;;;;;;;40.70;28.10;;;;;;;;;;6256160;28;20156;-67
2021/03/27 10:07:12;;;;;;;41.03;28.23;;;;;;;;;;6263851;28;20052;-65
2021/03/27 10:10:44;;;;;;;36.65;27.15;;;;;;;;;;6249272;28;20136;-66
2021/03/27 10:13:57;;;;;;;41.20;28.65;;;;;;;;;;6259372;28;20053;-68
2021/03/27 10:17:05;;;;;;;42.63;28.97;;;;;;;;;;6259618;28;20526;-68
2021/03/27 10:20:17;;;;;;;38.58;28.35;;;;;;;;;;6255039;28;20488;-68
2021/03/27 10:23:28;;;;;;;37.22;28.92;;;;;;;;;;6255937;28;20155;-68
2021/03/27 10:26:34;;;;;;;40.05;28.23;;;;;;;;;;6258909;28;20104;-68
2021/03/27 10:29:39;;;;;;;38.00;28.10;;;;;;;;;;6251154;28;20479;-68
2021/03/27 10:32:54;;;;;;;37.60;27.98;;;;;;;;;;6260692;28;20049;-67
2021/03/27 10:36:16;;;;;;;38.63;27.80;;;;;;;;;;6264927;28;20060;-68
2021/03/27 10:39:26;;;;;;;39.05;27.08;;;;;;;;;;6263992;28;20111;-68
2021/03/27 10:42:37;;;;;;;41.95;27.48;;;;;;;;;;6258196;28;20048;-67
2021/03/27 10:45:52;;;;;;;38.75;26.70;;;;;;;;;;6263854;28;20045;-68
2021/03/27 10:49:02;;;;;;;41.10;25.95;;;;;;;;;;6259317;28;20055;-68
2021/03/27 10:52:20;;;;;;;36.47;26.60;;;;;;;;;;6255077;28;20041;-67
2021/03/27 10:55:53;;;;;;;33.10;23.05;;;;;;;;;;6259864;28;20140;-67
2021/03/27 10:59:03;;;;;;;35.47;23.90;;;;;;;;;;6253036;28;20055;-67
2021/03/27 11:02:32;;;;;;;31.10;22.10;;;;;;;;;;6248617;28;20060;-68
2021/03/27 11:05:59;;;;;;;25.80;19.50;;;;;;;;;;6251293;28;20041;-68
2021/03/27 11:09:36;;;;;;;25.23;19.40;;;;;;;;;;6249980;28;20130;-67
2021/03/27 11:13:03;;;;;;;64.10;32.97;;;;;;;;;;6259192;28;20049;-66
2021/03/27 11:16:41;;;;;;;42.90;25.63;;;;;;;;;;6258728;28;20441;-66
2021/03/27 11:20:21;;;;;;;40.65;24.48;;;;;;;;;;6238364;28;20033;-66
2021/03/27 11:23:45;;;;;;;32.60;20.92;;;;;;;;;;6251330;28;20496;-66
2021/03/27 11:27:25;;;;;;;27.67;20.17;;;;;;;;;;6248320;28;20168;-66
2021/03/27 11:30:36;;;;;;;30.83;18.98;;;;;;;;;;6228481;28;20195;-66
2021/03/27 11:33:41;;;;;;;25.23;19.10;;;;;;;;;;6252891;28;20056;-66
2021/03/27 11:36:45;;;;;;;26.58;19.23;;;;;;;;;;6255685;28;20144;-67
2021/03/27 11:39:53;;;;;;;24.95;18.10;;;;;;;;;;6253275;28;20045;-66
2021/03/27 11:43:05;;;;;;;25.90;18.80;;;;;;;;;;6257763;28;20167;-66
2021/03/27 11:46:09;;;;;;;21.17;17.33;;;;;;;;;;6268370;28;20144;-68
2021/03/27 11:49:16;;;;;;;22.40;17.75;;;;;;;;;;6255207;28;20554;-66
2021/03/27 11:52:23;;;;;;;20.85;16.63;;;;;;;;;;6251074;28;20094;-66
2021/03/27 11:55:26;;;;;;;22.70;17.60;;;;;;;;;;6256248;28;20041;-65
2021/03/27 11:58:34;;;;;;;29.10;18.25;;;;;;;;;;6252026;28;20131;-65
2021/03/27 12:01:38;;;;;;;23.30;18.02;;;;;;;;;;6255948;28;20050;-65
2021/03/27 12:04:54;;;;;;;31.88;18.88;;;;;;;;;;6262809;28;20041;-67
2021/03/27 12:08:04;;;;;;;25.05;18.15;;;;;;;;;;6260126;28;20048;-65
2021/03/27 12:11:11;;;;;;;28.95;20.05;;;;;;;;;;6258642;28;20041;-65
2021/03/27 12:14:16;;;;;;;24.10;18.13;;;;;;;;;;6265408;28;20132;-65
2021/03/27 12:17:25;;;;;;;23.38;17.63;;;;;;;;;;6259665;28;20191;-65
2021/03/27 12:20:31;;;;;;;24.50;17.88;;;;;;;;;;6256877;28;20057;-66
2021/03/27 12:23:36;;;;;;;26.67;17.92;;;;;;;;;;6259657;28;20045;-66
2021/03/27 12:26:45;;;;;;;22.23;16.95;;;;;;;;;;6262152;28;20076;-65
2021/03/27 12:29:48;;;;;;;20.70;15.50;;;;;;;;;;6259023;28;20499;-67
2021/03/27 12:32:53;;;;;;;25.63;16.55;;;;;;;;;;6256801;28;20177;-66
2021/03/27 12:36:03;;;;;;;23.30;17.48;;;;;;;;;;6259215;28;20159;-68
2021/03/27 12:39:14;;;;;;;22.42;16.73;;;;;;;;;;6258185;28;20133;-68
2021/03/27 12:42:18;;;;;;;31.63;17.02;;;;;;;;;;6256811;28;20052;-66
2021/03/27 12:45:22;;;;;;;34.42;15.15;;;;;;;;;;6255269;28;20165;-67
2021/03/27 12:48:27;;;;;;;19.90;14.20;;;;;;;;;;6257402;28;20140;-66
2021/03/27 12:51:40;;;;;;;18.13;13.80;;;;;;;;;;6262347;28;20132;-67
2021/03/27 12:54:45;;;;;;;19.40;13.18;;;;;;;;;;6251457;28;20160;-68
2021/03/27 12:57:52;;;;;;;19.40;13.38;;;;;;;;;;6266198;28;20514;-67
2021/03/27 13:01:01;;;;;;;16.75;13.15;;;;;;;;;;6259570;28;20136;-67
2021/03/27 13:04:20;;;;;;;17.20;13.88;;;;;;;;;;6265689;28;20187;-68
2021/03/27 13:07:25;;;;;;;23.88;15.35;;;;;;;;;;6269823;28;20070;-68
2021/03/27 13:10:47;;;;;;;18.90;14.70;;;;;;;;;;6264976;28;20053;-67
2021/03/27 13:14:21;;;;;;;20.63;15.57;;;;;;;;;;6262141;28;20139;-66
2021/03/27 13:17:27;;;;;;;18.67;15.43;;;;;;;;;;6255672;28;20514;-66
2021/03/27 13:20:32;;;;;;;18.80;15.57;;;;;;;;;;6267419;28;20080;-67
2021/03/27 13:23:36;;;;;;;22.35;16.25;;;;;;;;;;6265380;28;20041;-69
2021/03/27 13:26:37;;;;;;;;;;;;;;;;;;6254920;28;20637;-67
2021/03/27 13:29:40;;;;;;;19.70;15.38;;;;;;;;;;6264771;28;19929;-69
2021/03/27 13:32:42;;;;;;;19.55;15.82;;;;;;;;;;6265914;28;20052;-69
2021/03/27 13:36:04;;;;;;;23.02;16.27;;;;;;;;;;6256370;28;20736;-69
2021/03/27 13:39:34;;;;;;;20.60;16.77;;;;;;;;;;6269673;28;20116;-68
2021/03/27 13:42:44;;;;;;;22.58;17.08;;;;;;;;;;6257232;28;20045;-68
2021/03/27 13:45:50;;;;;;;22.55;16.48;;;;;;;;;;6257972;28;20052;-68
2021/03/27 13:48:55;;;;;;;22.30;16.63;;;;;;;;;;6256470;28;20098;-68
2021/03/27 13:51:58;;;;;;;24.30;18.45;;;;;;;;;;6261688;28;20092;-67
2021/03/27 13:55:19;;;;;;;28.25;17.95;;;;;;;;;;6266015;28;20049;-69
2021/03/27 13:58:22;;;;;;;25.65;17.48;;;;;;;;;;6254876;28;20049;-66
2021/03/27 14:01:29;;;;;;;26.83;18.23;;;;;;;;;;6255429;28;20041;-66
2021/03/27 14:04:35;;;;;;;22.90;17.38;;;;;;;;;;6259745;28;20080;-67
2021/03/27 14:07:42;;;;;;;23.35;18.00;;;;;;;;;;6257350;28;20045;-66
2021/03/27 14:10:47;;;;;;;38.38;19.23;;;;;;;;;;6255708;28;20068;-68
2021/03/27 14:13:53;;;;;;;28.83;18.67;;;;;;;;;;6257622;28;20049;-66
2021/03/27 14:17:03;;;;;;;25.83;17.60;;;;;;;;;;6268392;28;20133;-68
2021/03/27 14:20:20;;;;;;;26.35;18.50;;;;;;;;;;6262260;28;20132;-69
2021/03/27 14:23:33;;;;;;;26.10;19.13;;;;;;;;;;6265033;28;20045;-70
2021/03/27 14:26:56;;;;;;;22.23;17.45;;;;;;;;;;6258258;28;20072;-70
2021/03/27 14:30:08;;;;;;;21.23;17.35;;;;;;;;;;6263802;28;20041;-70
2021/03/27 14:33:19;;;;;;;22.02;17.38;;;;;;;;;;6255445;28;20118;-70
2021/03/27 14:36:27;;;;;;;24.20;18.15;;;;;;;;;;6264299;28;21128;-69
2021/03/27 14:39:38;;;;;;;27.48;18.38;;;;;;;;;;6259819;28;20063;-70
2021/03/27 14:42:47;;;;;;;19.10;16.75;;;;;;;;;;6262215;28;20773;-69
2021/03/27 14:46:02;;;;;;;24.25;17.58;;;;;;;;;;6264285;28;20553;-70
2021/03/27 14:49:18;;;;;;;36.70;17.10;;;;;;;;;;6259476;28;20131;-68
2021/03/27 14:52:26;;;;;;;32.97;17.25;;;;;;;;;;6251706;28;20069;-68
2021/03/27 14:55:30;;;;;;;27.73;16.40;;;;;;;;;;6252547;28;20706;-68
2021/03/27 14:58:41;;;;;;;22.10;15.68;;;;;;;;;;6250364;28;20091;-68
2021/03/27 15:01:44;;;;;;;24.00;17.98;;;;;;;;;;6259358;28;20083;-68
2021/03/27 15:04:50;;;;;;;23.90;18.75;;;;;;;;;;6260995;28;20055;-69
2021/03/27 15:07:59;;;;;;;21.55;17.67;;;;;;;;;;6257091;28;20140;-69
2021/03/27 15:11:09;;;;;;;22.15;17.63;;;;;;;;;;6252766;28;20086;-68
2021/03/27 15:14:18;;;;;;;24.88;18.67;;;;;;;;;;6253689;28;20595;-69
2021/03/27 15:17:36;;;;;;;21.42;16.63;;;;;;;;;;6263224;28;20056;-68
2021/03/27 15:20:38;;;;;;;21.17;18.17;;;;;;;;;;6261948;28;20803;-66
2021/03/27 15:23:47;;;;;;;27.38;17.73;;;;;;;;;;6230518;28;20041;-65
2021/03/27 15:30:22;;;;;;;20.02;17.88;;;;;;;;;;6259935;28;20098;-66
2021/03/27 15:33:26;;;;;;;25.40;19.00;;;;;;;;;;6253330;28;20047;-66
2021/03/27 15:36:30;;;;;;;23.05;17.55;;;;;;;;;;6255941;28;20683;-67
2021/03/27 15:39:36;;;;;;;22.65;18.33;;;;;;;;;;6256349;28;20132;-68
2021/03/27 15:42:42;;;;;;;23.75;17.85;;;;;;;;;;6262620;28;20483;-67
2021/03/27 15:45:53;;;;;;;22.90;18.42;;;;;;;;;;6258689;28;20047;-67
2021/03/27 15:49:00;;;;;;;22.25;18.75;;;;;;;;;;6265035;28;20573;-67
2021/03/27 15:52:09;;;;;;;24.67;17.83;;;;;;;;;;6255818;28;20501;-67
2021/03/27 15:55:18;;;;;;;23.15;18.13;;;;;;;;;;6258917;28;20132;-67
2021/03/27 15:58:24;;;;;;;25.08;17.58;;;;;;;;;;6253329;28;20098;-68
2021/03/27 16:01:28;;;;;;;22.77;16.95;;;;;;;;;;6252677;28;20072;-67
2021/03/27 16:04:37;;;;;;;23.55;17.38;;;;;;;;;;6259410;28;20136;-67
2021/03/27 16:07:43;;;;;;;21.90;18.42;;;;;;;;;;6256611;28;20071;-67
2021/03/27 16:10:46;;;;;;;21.10;18.17;;;;;;;;;;6253565;28;20056;-67
2021/03/27 16:13:51;;;;;;;22.13;17.65;;;;;;;;;;6258136;28;20636;-69
2021/03/27 16:17:00;;;;;;;25.90;17.08;;;;;;;;;;6263402;28;20052;-69
2021/03/27 16:20:09;;;;;;;20.73;15.85;;;;;;;;;;6262407;28;20107;-67
2021/03/27 16:23:30;;;;;;;33.25;17.10;;;;;;;;;;6265313;28;20686;-68
2021/03/27 16:26:44;;;;;;;35.17;17.52;;;;;;;;;;6260258;28;20153;-67
2021/03/27 16:29:50;;;;;;;;;;;;;;;;;;6243305;28;20049;-67
2021/03/27 16:33:09;;;;;;;17.80;13.35;;;;;;;;;;6255896;28;20044;-67
2021/03/27 16:36:24;;;;;;;19.38;12.38;;;;;;;;;;6252023;28;20116;-68
2021/03/27 16:39:35;;;;;;;14.00;10.55;;;;;;;;;;6251550;28;20135;-67
2021/03/27 16:43:05;;;;;;;12.80;10.30;;;;;;;;;;6259467;28;20053;-68
2021/03/27 16:46:18;;;;;;;16.58;10.27;;;;;;;;;;6258238;28;20037;-68
2021/03/27 16:49:29;;;;;;;17.57;10.60;;;;;;;;;;6263031;28;20060;-68
2021/03/27 16:52:36;;;;;;;18.85;10.73;;;;;;;;;;6253891;28;20558;-68
2021/03/27 16:55:40;;;;;;;15.77;10.02;;;;;;;;;;6252089;28;20188;-68
2021/03/27 16:58:51;;;;;;;18.23;10.00;;;;;;;;;;6251626;28;20459;-68
2021/03/27 17:01:59;;;;;;;12.13;9.57;;;;;;;;;;6253550;28;20063;-69
2021/03/27 17:05:17;;;;;;;15.45;10.23;;;;;;;;;;6255055;28;20531;-69
2021/03/27 17:08:29;;;;;;;17.63;10.13;;;;;;;;;;6250553;28;20526;-69
2021/03/27 17:12:00;;;;;;;13.07;9.00;;;;;;;;;;6250705;28;20131;-67
2021/03/27 17:15:12;;;;;;;13.23;9.25;;;;;;;;;;6240196;28;20100;-67
2021/03/27 17:18:15;;;;;;;13.30;9.63;;;;;;;;;;6250358;28;20060;-67
2021/03/27 17:21:23;;;;;;;14.07;8.98;;;;;;;;;;6253666;28;20116;-70
2021/03/27 17:24:28;;;;;;;11.93;9.40;;;;;;;;;;6252929;28;20049;-69
2021/03/27 17:27:33;;;;;;;13.95;9.57;;;;;;;;;;6253840;28;20457;-68
2021/03/27 17:30:39;;;;;;;17.90;9.73;;;;;;;;;;6255871;28;20069;-69
2021/03/27 17:34:09;;;;;;;11.90;8.25;;;;;;;;;;6253795;28;20069;-69
2021/03/27 17:37:17;;;;;;;14.25;7.95;;;;;;;;;;6252383;28;20128;-69
2021/03/27 17:40:32;;;;;;;17.80;7.57;;;;;;;;;;6250248;28;20062;-69
2021/03/27 17:43:35;;;;;;;16.75;7.57;;;;;;;;;;6255570;28;20139;-69
2021/03/27 17:46:40;;;;;;;14.88;6.65;;;;;;;;;;6259172;28;20136;-70
2021/03/27 17:49:43;;;;;;;20.23;6.85;;;;;;;;;;6257751;28;20116;-69
2021/03/27 17:52:49;;;;;;;13.90;6.43;;;;;;;;;;6250582;28;20499;-67
2021/03/27 17:55:54;;;;;;;14.45;7.43;;;;;;;;;;6254473;28;20152;-67
2021/03/27 17:58:56;;;;;;;14.23;6.78;;;;;;;;;;6249992;28;20046;-67
2021/03/27 18:02:01;;;;;;;11.18;6.72;;;;;;;;;;6257407;28;20072;-67
2021/03/27 18:05:05;;;;;;;9.73;6.32;;;;;;;;;;6260783;28;20101;-68
2021/03/27 18:08:14;;;;;;;;;;;;;;;;;;6265809;28;20527;-68
2021/03/27 18:11:20;;;;;;;13.20;6.35;;;;;;;;;;6245875;28;20454;-68
2021/03/27 18:14:30;;;;;;;14.93;5.50;;;;;;;;;;6256288;28;20049;-68
2021/03/27 18:17:41;;;;;;;12.93;5.03;;;;;;;;;;6254432;28;20399;-67
2021/03/27 18:20:58;;;;;;;7.70;5.03;;;;;;;;;;6257425;28;20085;-68
2021/03/27 18:24:07;;;;;;;6.57;4.60;;;;;;;;;;6268826;28;20052;-67
2021/03/27 18:27:16;;;;;;;7.90;4.05;;;;;;;;;;6251910;28;20049;-67
2021/03/27 18:30:23;;;;;;;6.13;4.03;;;;;;;;;;6257757;28;20466;-67
2021/03/27 18:33:35;;;;;;;7.00;4.55;;;;;;;;;;6263890;28;21688;-67
2021/03/27 18:36:45;;;;;;;8.95;4.20;;;;;;;;;;6259194;28;20543;-67
2021/03/27 18:39:52;;;;;;;10.80;4.65;;;;;;;;;;6261892;28;20037;-67
2021/03/27 18:42:54;;;;;;;8.15;4.72;;;;;;;;;;6262977;28;20037;-69
2021/03/27 18:45:56;;;;;;;11.05;5.25;;;;;;;;;;6267360;28;20476;-67
2021/03/27 18:49:04;;;;;;;7.85;5.72;;;;;;;;;;6259996;28;20132;-69
2021/03/27 18:52:07;;;;;;;10.02;5.80;;;;;;;;;;6257975;28;20480;-69